sensor_id;sensor_type;location;lat;lon;timestamp;pressure;altitude;pressure_sealevel;temperature;humidity
1401;BME280;46518;48.842;8.926;2023-03-12T00:00:39;96782.53;;;0.30;72.20
1401;BME280;46518;48.842;8.926;2023-03-12T00:03:07;96777.22;;;-0.11;72.39
1401;BME280;46518;48.842;8.926;2023-03-12T00:05:36;96773.34;;;-0.44;74.10
1401;BME280;46518;48.842;8.926;2023-03-12T00:08:04;96782.97;;;-0.74;76.25
1401;BME280;46518;48.842;8.926;2023-03-12T00:10:33;96777.03;;;-0.89;77.39
1401;BME280;46518;48.842;8.926;2023-03-12T00:13:01;96775.00;;;-1.23;79.23
1401;BME280;46518;48.842;8.926;2023-03-12T00:15:31;96785.06;;;-1.28;78.85
1401;BME280;46518;48.842;8.926;2023-03-12T00:17:59;96783.22;;;-1.35;78.34
1401;BME280;46518;48.842;8.926;2023-03-12T00:20:27;96783.28;;;-1.43;79.02
1401;BME280;46518;48.842;8.926;2023-03-12T00:22:56;96781.41;;;-1.49;79.98
1401;BME280;46518;48.842;8.926;2023-03-12T00:25:24;96784.63;;;-1.47;80.07
1401;BME280;46518;48.842;8.926;2023-03-12T00:27:52;96780.97;;;-1.38;79.51
1401;BME280;46518;48.842;8.926;2023-03-12T00:30:20;96781.84;;;-1.31;79.68
1401;BME280;46518;48.842;8.926;2023-03-12T00:32:49;96769.19;;;-1.11;78.36
1401;BME280;46518;48.842;8.926;2023-03-12T00:35:18;96773.94;;;-1.44;79.87
1401;BME280;46518;48.842;8.926;2023-03-12T00:37:46;96768.16;;;-1.31;80.47
1401;BME280;46518;48.842;8.926;2023-03-12T00:40:14;96774.63;;;-1.20;79.32
1401;BME280;46518;48.842;8.926;2023-03-12T00:42:43;96763.69;;;-1.22;78.68
1401;BME280;46518;48.842;8.926;2023-03-12T00:45:11;96770.63;;;-1.38;80.02
1401;BME280;46518;48.842;8.926;2023-03-12T00:47:39;96767.00;;;-1.43;80.18
1401;BME280;46518;48.842;8.926;2023-03-12T00:50:09;96763.41;;;-1.27;79.57
1401;BME280;46518;48.842;8.926;2023-03-12T00:52:37;96768.06;;;-1.23;78.93
1401;BME280;46518;48.842;8.926;2023-03-12T00:55:06;96766.25;;;-1.08;78.52
1401;BME280;46518;48.842;8.926;2023-03-12T00:57:34;96760.81;;;-0.98;78.03
1401;BME280;46518;48.842;8.926;2023-03-12T01:00:04;96762.16;;;-1.02;78.33
1401;BME280;46518;48.842;8.926;2023-03-12T01:02:35;96759.66;;;-1.10;78.60
1401;BME280;46518;48.842;8.926;2023-03-12T01:05:06;96759.59;;;-1.17;78.73
1401;BME280;46518;48.842;8.926;2023-03-12T01:07:36;96754.59;;;-1.03;78.53
1401;BME280;46518;48.842;8.926;2023-03-12T01:10:06;96763.91;;;-0.88;78.15
1401;BME280;46518;48.842;8.926;2023-03-12T01:12:34;96763.63;;;-0.78;77.37
1401;BME280;46518;48.842;8.926;2023-03-12T01:15:03;96753.06;;;-0.61;77.38
1401;BME280;46518;48.842;8.926;2023-03-12T01:17:31;96754.38;;;-0.51;76.55
1401;BME280;46518;48.842;8.926;2023-03-12T01:19:59;96752.56;;;-0.50;76.52
1401;BME280;46518;48.842;8.926;2023-03-12T01:22:27;96759.78;;;-0.46;76.12
1401;BME280;46518;48.842;8.926;2023-03-12T01:24:57;96750.50;;;-0.61;77.33
1401;BME280;46518;48.842;8.926;2023-03-12T01:27:25;96756.09;;;-0.58;77.68
1401;BME280;46518;48.842;8.926;2023-03-12T01:29:53;96759.28;;;-0.56;78.13
1401;BME280;46518;48.842;8.926;2023-03-12T01:32:22;96750.50;;;-0.61;78.73
1401;BME280;46518;48.842;8.926;2023-03-12T01:34:50;96761.25;;;-0.58;78.35
1401;BME280;46518;48.842;8.926;2023-03-12T01:37:19;96765.81;;;-0.60;78.57
1401;BME280;46518;48.842;8.926;2023-03-12T01:39:47;96760.31;;;-0.72;79.95
1401;BME280;46518;48.842;8.926;2023-03-12T01:42:17;96755.66;;;-0.61;79.67
1401;BME280;46518;48.842;8.926;2023-03-12T01:44:52;96758.56;;;-0.50;78.73
1401;BME280;46518;48.842;8.926;2023-03-12T01:47:21;96760.91;;;-0.33;77.75
1401;BME280;46518;48.842;8.926;2023-03-12T01:49:51;96760.16;;;-0.49;78.48
1401;BME280;46518;48.842;8.926;2023-03-12T01:52:21;96755.16;;;-0.50;78.56
1401;BME280;46518;48.842;8.926;2023-03-12T01:54:56;96750.69;;;-0.41;78.32
1401;BME280;46518;48.842;8.926;2023-03-12T01:57:30;96751.06;;;-0.45;77.99
1401;BME280;46518;48.842;8.926;2023-03-12T02:00:04;96762.88;;;-0.35;76.71
1401;BME280;46518;48.842;8.926;2023-03-12T02:02:43;96760.09;;;-0.34;76.92
1401;BME280;46518;48.842;8.926;2023-03-12T02:05:23;96757.53;;;-0.34;75.27
1401;BME280;46518;48.842;8.926;2023-03-12T02:07:52;96755.72;;;-0.33;76.82
1401;BME280;46518;48.842;8.926;2023-03-12T02:10:21;96751.09;;;-0.16;75.53
1401;BME280;46518;48.842;8.926;2023-03-12T02:12:50;96751.91;;;-0.16;76.43
1401;BME280;46518;48.842;8.926;2023-03-12T02:15:19;96745.38;;;-0.12;75.91
1401;BME280;46518;48.842;8.926;2023-03-12T02:17:47;96748.91;;;-0.41;76.59
1401;BME280;46518;48.842;8.926;2023-03-12T02:20:19;96745.38;;;-0.33;76.38
1401;BME280;46518;48.842;8.926;2023-03-12T02:22:53;96740.94;;;-0.61;78.65
1401;BME280;46518;48.842;8.926;2023-03-12T02:25:29;96744.88;;;-0.65;78.63
1401;BME280;46518;48.842;8.926;2023-03-12T02:27:59;96740.94;;;-0.61;78.35
1401;BME280;46518;48.842;8.926;2023-03-12T02:30:30;96736.03;;;-0.56;77.55
1401;BME280;46518;48.842;8.926;2023-03-12T02:33:01;96740.53;;;-0.43;76.89
1401;BME280;46518;48.842;8.926;2023-03-12T02:35:29;96745.38;;;-0.33;76.37
1401;BME280;46518;48.842;8.926;2023-03-12T02:37:57;96739.22;;;-0.11;75.66
1401;BME280;46518;48.842;8.926;2023-03-12T02:40:32;96742.47;;;-0.02;75.57
1401;BME280;46518;48.842;8.926;2023-03-12T02:43:05;96746.25;;;-0.05;75.09
1401;BME280;46518;48.842;8.926;2023-03-12T02:45:34;96742.59;;;-0.10;75.40
1401;BME280;46518;48.842;8.926;2023-03-12T02:48:07;96745.69;;;-0.22;76.00
1401;BME280;46518;48.842;8.926;2023-03-12T02:50:35;96739.34;;;0.03;76.14
1401;BME280;46518;48.842;8.926;2023-03-12T02:53:03;96739.44;;;-0.06;75.58
1401;BME280;46518;48.842;8.926;2023-03-12T02:55:34;96745.63;;;0.21;75.77
1401;BME280;46518;48.842;8.926;2023-03-12T02:58:02;96740.91;;;0.32;75.77
1401;BME280;46518;48.842;8.926;2023-03-12T03:00:31;96730.44;;;0.12;75.44
1401;BME280;46518;48.842;8.926;2023-03-12T03:02:59;96739.69;;;-0.01;75.84
1401;BME280;46518;48.842;8.926;2023-03-12T03:05:28;96736.25;;;-0.08;75.50
1401;BME280;46518;48.842;8.926;2023-03-12T03:07:56;96730.47;;;-0.10;75.77
1401;BME280;46518;48.842;8.926;2023-03-12T03:10:24;96729.47;;;-0.09;76.21
1401;BME280;46518;48.842;8.926;2023-03-12T03:12:54;96722.09;;;-0.12;75.62
1401;BME280;46518;48.842;8.926;2023-03-12T03:15:23;96721.78;;;-0.02;73.88
1401;BME280;46518;48.842;8.926;2023-03-12T03:17:53;96724.75;;;0.23;74.20
1401;BME280;46518;48.842;8.926;2023-03-12T03:20:21;96718.81;;;0.29;73.56
1401;BME280;46518;48.842;8.926;2023-03-12T03:22:51;96723.91;;;0.51;73.19
1401;BME280;46518;48.842;8.926;2023-03-12T03:25:19;96724.19;;;0.69;73.75
1401;BME280;46518;48.842;8.926;2023-03-12T03:27:49;96734.44;;;0.84;73.68
1401;BME280;46518;48.842;8.926;2023-03-12T03:30:19;96722.41;;;0.70;74.60
1401;BME280;46518;48.842;8.926;2023-03-12T03:32:49;96729.38;;;0.69;75.75
1401;BME280;46518;48.842;8.926;2023-03-12T03:35:18;96723.97;;;0.64;75.26
1401;BME280;46518;48.842;8.926;2023-03-12T03:37:47;96728.53;;;0.62;75.76
1401;BME280;46518;48.842;8.926;2023-03-12T03:40:16;96724.41;;;0.68;74.35
1401;BME280;46518;48.842;8.926;2023-03-12T03:42:45;96724.53;;;0.53;75.40
1401;BME280;46518;48.842;8.926;2023-03-12T03:45:13;96723.91;;;0.51;76.28
1401;BME280;46518;48.842;8.926;2023-03-12T03:47:44;96717.63;;;0.67;75.38
1401;BME280;46518;48.842;8.926;2023-03-12T03:50:12;96716.94;;;0.93;74.25
1401;BME280;46518;48.842;8.926;2023-03-12T03:52:41;96696.03;;;1.01;73.53
1401;BME280;46518;48.842;8.926;2023-03-12T03:55:09;96695.31;;;1.20;72.38
1401;BME280;46518;48.842;8.926;2023-03-12T03:57:38;96702.09;;;1.28;71.75
1401;BME280;46518;48.842;8.926;2023-03-12T04:00:10;96701.31;;;1.41;71.64
1401;BME280;46518;48.842;8.926;2023-03-12T04:02:44;96694.72;;;1.32;71.34
1401;BME280;46518;48.842;8.926;2023-03-12T04:05:14;96701.06;;;1.16;73.36
1401;BME280;46518;48.842;8.926;2023-03-12T04:07:47;96703.06;;;1.20;74.07
1401;BME280;46518;48.842;8.926;2023-03-12T04:10:19;96714.25;;;1.34;74.06
1401;BME280;46518;48.842;8.926;2023-03-12T04:12:47;96708.69;;;1.44;73.34
1401;BME280;46518;48.842;8.926;2023-03-12T04:15:16;96704.31;;;1.44;73.23
1401;BME280;46518;48.842;8.926;2023-03-12T04:17:46;96703.03;;;1.07;75.27
1401;BME280;46518;48.842;8.926;2023-03-12T04:20:14;96699.75;;;0.78;77.14
1401;BME280;46518;48.842;8.926;2023-03-12T04:22:43;96710.31;;;0.83;78.82
1401;BME280;46518;48.842;8.926;2023-03-12T04:25:11;96713.38;;;1.00;77.82
1401;BME280;46518;48.842;8.926;2023-03-12T04:27:40;96711.53;;;0.88;77.28
1401;BME280;46518;48.842;8.926;2023-03-12T04:30:09;96709.97;;;0.93;76.55
1401;BME280;46518;48.842;8.926;2023-03-12T04:32:38;96711.13;;;0.84;77.26
1401;BME280;46518;48.842;8.926;2023-03-12T04:35:08;96714.56;;;0.98;77.48
1401;BME280;46518;48.842;8.926;2023-03-12T04:37:36;96712.19;;;1.10;77.20
1401;BME280;46518;48.842;8.926;2023-03-12T04:40:05;96707.22;;;1.15;77.26
1401;BME280;46518;48.842;8.926;2023-03-12T04:42:36;96718.00;;;1.05;77.34
1401;BME280;46518;48.842;8.926;2023-03-12T04:45:06;96716.59;;;1.09;77.38
1401;BME280;46518;48.842;8.926;2023-03-12T04:47:38;96714.19;;;1.01;78.76
1401;BME280;46518;48.842;8.926;2023-03-12T04:50:09;96712.63;;;1.13;78.39
1401;BME280;46518;48.842;8.926;2023-03-12T04:52:38;96705.84;;;1.19;78.01
1401;BME280;46518;48.842;8.926;2023-03-12T04:55:08;96708.88;;;1.22;78.90
1401;BME280;46518;48.842;8.926;2023-03-12T04:57:36;96712.19;;;1.10;79.86
1401;BME280;46518;48.842;8.926;2023-03-12T05:00:05;96705.44;;;1.22;79.76
1401;BME280;46518;48.842;8.926;2023-03-12T05:02:40;96702.66;;;1.17;80.49
1401;BME280;46518;48.842;8.926;2023-03-12T05:05:10;96709.66;;;1.23;80.50
1401;BME280;46518;48.842;8.926;2023-03-12T05:07:39;96699.66;;;1.20;81.70
1401;BME280;46518;48.842;8.926;2023-03-12T05:10:08;96698.69;;;1.34;80.74
1401;BME280;46518;48.842;8.926;2023-03-12T05:12:37;96704.69;;;1.35;80.62
1401;BME280;46518;48.842;8.926;2023-03-12T05:15:06;96701.09;;;1.36;81.32
1401;BME280;46518;48.842;8.926;2023-03-12T05:17:35;96696.31;;;1.39;80.72
1401;BME280;46518;48.842;8.926;2023-03-12T05:20:04;96698.50;;;1.29;83.90
1401;BME280;46518;48.842;8.926;2023-03-12T05:22:34;96700.53;;;1.40;84.41
1401;BME280;46518;48.842;8.926;2023-03-12T05:25:03;96689.13;;;1.35;85.75
1401;BME280;46518;48.842;8.926;2023-03-12T05:27:33;96706.31;;;1.42;85.99
1401;BME280;46518;48.842;8.926;2023-03-12T05:30:02;96707.13;;;1.56;85.76
1401;BME280;46518;48.842;8.926;2023-03-12T05:32:31;96709.31;;;1.46;86.28
1401;BME280;46518;48.842;8.926;2023-03-12T05:34:59;96707.94;;;1.50;86.33
1401;BME280;46518;48.842;8.926;2023-03-12T05:37:28;96711.28;;;1.57;85.67
1401;BME280;46518;48.842;8.926;2023-03-12T05:39:59;96710.72;;;1.62;85.48
1401;BME280;46518;48.842;8.926;2023-03-12T05:42:28;96714.72;;;1.71;87.24
1401;BME280;46518;48.842;8.926;2023-03-12T05:44:57;96723.09;;;1.93;86.64
1401;BME280;46518;48.842;8.926;2023-03-12T05:47:26;96712.53;;;2.01;87.33
1401;BME280;46518;48.842;8.926;2023-03-12T05:49:54;96713.53;;;2.00;88.35
1401;BME280;46518;48.842;8.926;2023-03-12T05:52:23;96711.53;;;2.15;88.73
1401;BME280;46518;48.842;8.926;2023-03-12T05:54:51;96712.13;;;1.78;92.37
1401;BME280;46518;48.842;8.926;2023-03-12T05:57:22;96710.91;;;1.60;93.83
1401;BME280;46518;48.842;8.926;2023-03-12T05:59:50;96703.94;;;1.61;94.89
1401;BME280;46518;48.842;8.926;2023-03-12T06:02:20;96706.53;;;1.47;95.43
1401;BME280;46518;48.842;8.926;2023-03-12T06:04:48;96704.09;;;1.39;97.19
1401;BME280;46518;48.842;8.926;2023-03-12T06:07:16;96708.09;;;1.42;97.72
1401;BME280;46518;48.842;8.926;2023-03-12T06:09:44;96713.09;;;1.50;97.77
1401;BME280;46518;48.842;8.926;2023-03-12T06:12:13;96706.69;;;1.39;98.65
1401;BME280;46518;48.842;8.926;2023-03-12T06:14:43;96710.50;;;1.50;98.47
1401;BME280;46518;48.842;8.926;2023-03-12T06:17:12;96703.53;;;1.50;98.61
1401;BME280;46518;48.842;8.926;2023-03-12T06:19:40;96706.72;;;1.53;97.85
1401;BME280;46518;48.842;8.926;2023-03-12T06:22:10;96697.56;;;1.50;97.71
1401;BME280;46518;48.842;8.926;2023-03-12T06:24:38;96689.16;;;1.55;98.03
1401;BME280;46518;48.842;8.926;2023-03-12T06:27:14;96689.16;;;1.48;98.00
1401;BME280;46518;48.842;8.926;2023-03-12T06:29:43;96689.97;;;1.55;97.34
1401;BME280;46518;48.842;8.926;2023-03-12T06:32:13;96684.19;;;1.53;96.89
1401;BME280;46518;48.842;8.926;2023-03-12T06:34:42;96682.56;;;1.52;97.16
1401;BME280;46518;48.842;8.926;2023-03-12T06:37:10;96675.22;;;1.56;96.83
1401;BME280;46518;48.842;8.926;2023-03-12T06:39:38;96685.16;;;1.52;97.01
1401;BME280;46518;48.842;8.926;2023-03-12T06:42:07;96675.19;;;1.42;97.29
1401;BME280;46518;48.842;8.926;2023-03-12T06:44:35;96681.16;;;1.49;96.93
1401;BME280;46518;48.842;8.926;2023-03-12T06:47:05;96684.78;;;1.68;95.53
1401;BME280;46518;48.842;8.926;2023-03-12T06:49:33;96686.75;;;1.80;95.22
1401;BME280;46518;48.842;8.926;2023-03-12T06:52:02;96689.97;;;1.82;96.21
1401;BME280;46518;48.842;8.926;2023-03-12T06:54:31;96680.00;;;1.79;96.60
1401;BME280;46518;48.842;8.926;2023-03-12T06:56:59;96696.53;;;1.64;96.37
1401;BME280;46518;48.842;8.926;2023-03-12T06:59:27;96693.16;;;1.70;97.13
1401;BME280;46518;48.842;8.926;2023-03-12T07:01:55;96693.56;;;1.67;97.59
1401;BME280;46518;48.842;8.926;2023-03-12T07:04:25;96688.78;;;1.78;97.97
1401;BME280;46518;48.842;8.926;2023-03-12T07:06:53;96686.56;;;1.75;99.14
1401;BME280;46518;48.842;8.926;2023-03-12T07:09:22;96691.56;;;1.76;99.94
1401;BME280;46518;48.842;8.926;2023-03-12T07:11:50;96691.38;;;1.71;99.84
1401;BME280;46518;48.842;8.926;2023-03-12T07:14:19;96693.38;;;1.76;98.99
1401;BME280;46518;48.842;8.926;2023-03-12T07:16:47;96693.16;;;1.70;98.97
1401;BME280;46518;48.842;8.926;2023-03-12T07:19:15;96701.75;;;1.71;98.56
1401;BME280;46518;48.842;8.926;2023-03-12T07:21:46;96703.16;;;1.80;98.71
1401;BME280;46518;48.842;8.926;2023-03-12T07:24:14;96701.94;;;1.96;99.50
1401;BME280;46518;48.842;8.926;2023-03-12T07:26:44;96694.16;;;1.89;99.42
1401;BME280;46518;48.842;8.926;2023-03-12T07:29:12;96676.78;;;1.77;99.88
1401;BME280;46518;48.842;8.926;2023-03-12T07:31:41;96692.56;;;2.15;99.35
1401;BME280;46518;48.842;8.926;2023-03-12T07:34:09;96697.53;;;2.30;98.75
1401;BME280;46518;48.842;8.926;2023-03-12T07:36:37;96690.91;;;2.34;98.25
1401;BME280;46518;48.842;8.926;2023-03-12T07:39:07;96689.13;;;2.28;98.58
1401;BME280;46518;48.842;8.926;2023-03-12T07:41:35;96689.47;;;2.51;99.07
1401;BME280;46518;48.842;8.926;2023-03-12T07:44:04;96693.09;;;2.44;98.74
1401;BME280;46518;48.842;8.926;2023-03-12T07:46:33;96681.91;;;2.43;98.90
1401;BME280;46518;48.842;8.926;2023-03-12T07:49:02;96690.06;;;2.60;99.29
1401;BME280;46518;48.842;8.926;2023-03-12T07:51:31;96700.41;;;2.67;100.00
1401;BME280;46518;48.842;8.926;2023-03-12T07:53:59;96688.25;;;2.61;99.92
1401;BME280;46518;48.842;8.926;2023-03-12T07:56:28;96690.38;;;2.84;99.43
1401;BME280;46518;48.842;8.926;2023-03-12T07:58:56;96687.75;;;2.90;99.11
1401;BME280;46518;48.842;8.926;2023-03-12T08:01:25;96697.44;;;3.15;98.22
1401;BME280;46518;48.842;8.926;2023-03-12T08:03:58;96692.50;;;3.38;98.35
1401;BME280;46518;48.842;8.926;2023-03-12T08:06:26;96698.19;;;3.54;97.05
1401;BME280;46518;48.842;8.926;2023-03-12T08:08:55;96690.63;;;3.77;97.07
1401;BME280;46518;48.842;8.926;2023-03-12T08:11:24;96697.13;;;3.61;96.10
1401;BME280;46518;48.842;8.926;2023-03-12T08:13:53;96701.13;;;3.89;96.28
1401;BME280;46518;48.842;8.926;2023-03-12T08:16:22;96707.34;;;3.88;97.09
1401;BME280;46518;48.842;8.926;2023-03-12T08:18:50;96712.56;;;4.13;95.68
1401;BME280;46518;48.842;8.926;2023-03-12T08:21:19;96708.16;;;3.88;97.27
1401;BME280;46518;48.842;8.926;2023-03-12T08:23:47;96708.63;;;4.04;97.85
1401;BME280;46518;48.842;8.926;2023-03-12T08:26:15;96717.72;;;4.20;96.93
1401;BME280;46518;48.842;8.926;2023-03-12T08:28:44;96720.69;;;4.42;96.90
1401;BME280;46518;48.842;8.926;2023-03-12T08:31:13;96724.66;;;4.26;97.04
1401;BME280;46518;48.842;8.926;2023-03-12T08:33:41;96729.53;;;4.41;97.97
1401;BME280;46518;48.842;8.926;2023-03-12T08:36:10;96722.69;;;4.21;98.60
1401;BME280;46518;48.842;8.926;2023-03-12T08:38:43;96721.84;;;4.27;100.00
1401;BME280;46518;48.842;8.926;2023-03-12T08:41:11;96716.38;;;4.54;99.53
1401;BME280;46518;48.842;8.926;2023-03-12T08:43:39;96716.16;;;4.37;99.54
1401;BME280;46518;48.842;8.926;2023-03-12T08:46:08;96709.97;;;4.31;100.00
1401;BME280;46518;48.842;8.926;2023-03-12T08:48:42;96709.94;;;4.38;100.00
1401;BME280;46518;48.842;8.926;2023-03-12T08:51:11;96707.91;;;4.40;100.00
1401;BME280;46518;48.842;8.926;2023-03-12T08:53:42;96704.84;;;4.25;100.00
1401;BME280;46518;48.842;8.926;2023-03-12T08:56:10;96710.41;;;4.28;100.00
1401;BME280;46518;48.842;8.926;2023-03-12T08:58:39;96710.22;;;4.48;100.00
1401;BME280;46518;48.842;8.926;2023-03-12T09:01:08;96714.44;;;4.68;100.00
1401;BME280;46518;48.842;8.926;2023-03-12T09:03:37;96716.38;;;4.54;100.00
1401;BME280;46518;48.842;8.926;2023-03-12T09:06:09;96715.75;;;4.77;100.00
1401;BME280;46518;48.842;8.926;2023-03-12T09:08:39;96709.28;;;4.98;100.00
1401;BME280;46518;48.842;8.926;2023-03-12T09:11:09;96712.75;;;5.10;100.00
1401;BME280;46518;48.842;8.926;2023-03-12T09:13:38;96707.44;;;5.17;100.00
1401;BME280;46518;48.842;8.926;2023-03-12T09:16:26;96711.97;;;5.22;100.00
1401;BME280;46518;48.842;8.926;2023-03-12T09:18:55;96713.22;;;5.19;100.00
1401;BME280;46518;48.842;8.926;2023-03-12T09:21:25;96715.03;;;5.18;100.00
1401;BME280;46518;48.842;8.926;2023-03-12T09:23:53;96720.81;;;5.51;100.00
1401;BME280;46518;48.842;8.926;2023-03-12T09:26:22;96714.56;;;5.40;100.00
1401;BME280;46518;48.842;8.926;2023-03-12T09:28:50;96725.38;;;5.55;100.00
1401;BME280;46518;48.842;8.926;2023-03-12T09:31:18;96722.69;;;5.74;100.00
1401;BME280;46518;48.842;8.926;2023-03-12T09:33:47;96728.06;;;5.79;100.00
1401;BME280;46518;48.842;8.926;2023-03-12T09:36:15;96725.72;;;5.89;100.00
1401;BME280;46518;48.842;8.926;2023-03-12T09:38:45;96731.13;;;6.30;100.00
1401;BME280;46518;48.842;8.926;2023-03-12T09:41:17;96721.56;;;6.23;100.00
1401;BME280;46518;48.842;8.926;2023-03-12T09:43:50;96740.63;;;6.24;100.00
1401;BME280;46518;48.842;8.926;2023-03-12T09:46:24;96728.94;;;6.15;100.00
1401;BME280;46518;48.842;8.926;2023-03-12T09:48:55;96718.16;;;6.35;100.00
1401;BME280;46518;48.842;8.926;2023-03-12T09:51:30;96729.84;;;6.44;100.00
1401;BME280;46518;48.842;8.926;2023-03-12T09:54:03;96734.75;;;6.52;100.00
1401;BME280;46518;48.842;8.926;2023-03-12T09:56:34;96737.34;;;6.64;100.00
1401;BME280;46518;48.842;8.926;2023-03-12T09:59:02;96738.84;;;6.60;100.00
1401;BME280;46518;48.842;8.926;2023-03-12T10:01:36;96736.91;;;6.67;100.00
1401;BME280;46518;48.842;8.926;2023-03-12T10:04:40;96736.97;;;6.84;100.00
1401;BME280;46518;48.842;8.926;2023-03-12T10:07:31;96736.47;;;7.10;100.00
1401;BME280;46518;48.842;8.926;2023-03-12T10:10:21;96744.22;;;7.05;100.00
1401;BME280;46518;48.842;8.926;2023-03-12T10:13:04;96743.53;;;6.98;100.00
1401;BME280;46518;48.842;8.926;2023-03-12T10:15:43;96744.19;;;7.17;100.00
1401;BME280;46518;48.842;8.926;2023-03-12T10:18:21;96754.97;;;7.21;100.00
1401;BME280;46518;48.842;8.926;2023-03-12T10:21:08;96755.41;;;7.29;100.00
1401;BME280;46518;48.842;8.926;2023-03-12T10:23:45;96760.50;;;7.36;100.00
1401;BME280;46518;48.842;8.926;2023-03-12T10:26:22;96749.72;;;7.32;100.00
1401;BME280;46518;48.842;8.926;2023-03-12T10:28:56;96772.41;;;7.44;100.00
1401;BME280;46518;48.842;8.926;2023-03-12T10:31:28;96767.66;;;7.41;100.00
1401;BME280;46518;48.842;8.926;2023-03-12T10:33:59;96781.88;;;7.45;100.00
1401;BME280;46518;48.842;8.926;2023-03-12T10:36:35;96783.56;;;7.51;100.00
1401;BME280;46518;48.842;8.926;2023-03-12T10:39:12;96786.38;;;7.61;100.00
1401;BME280;46518;48.842;8.926;2023-03-12T10:41:44;96791.50;;;7.56;100.00
1401;BME280;46518;48.842;8.926;2023-03-12T10:44:17;96794.38;;;7.54;100.00
1401;BME280;46518;48.842;8.926;2023-03-12T10:47:03;96786.03;;;7.57;100.00
1401;BME280;46518;48.842;8.926;2023-03-12T10:49:35;96792.63;;;7.60;100.00
1401;BME280;46518;48.842;8.926;2023-03-12T10:52:10;96800.97;;;7.57;100.00
1401;BME280;46518;48.842;8.926;2023-03-12T10:54:43;96795.16;;;7.55;100.00
1401;BME280;46518;48.842;8.926;2023-03-12T10:57:14;96809.94;;;7.61;100.00
1401;BME280;46518;48.842;8.926;2023-03-12T10:59:45;96806.53;;;7.61;100.00
1401;BME280;46518;48.842;8.926;2023-03-12T11:02:29;96805.44;;;7.73;100.00
1401;BME280;46518;48.842;8.926;2023-03-12T11:04:58;96798.25;;;7.81;100.00
1401;BME280;46518;48.842;8.926;2023-03-12T11:07:29;96798.97;;;7.93;100.00
1401;BME280;46518;48.842;8.926;2023-03-12T11:10:17;96809.91;;;8.02;100.00
1401;BME280;46518;48.842;8.926;2023-03-12T11:13:00;96800.69;;;7.99;100.00
1401;BME280;46518;48.842;8.926;2023-03-12T11:15:37;96804.66;;;8.02;100.00
1401;BME280;46518;48.842;8.926;2023-03-12T11:18:30;96802.44;;;8.10;100.00
1401;BME280;46518;48.842;8.926;2023-03-12T11:21:17;96793.16;;;8.19;100.00
1401;BME280;46518;48.842;8.926;2023-03-12T11:28:42;96802.16;;;8.57;100.00
1401;BME280;46518;48.842;8.926;2023-03-12T11:31:19;96798.53;;;8.80;100.00
1401;BME280;46518;48.842;8.926;2023-03-12T11:33:51;96797.34;;;8.88;100.00
1401;BME280;46518;48.842;8.926;2023-03-12T11:36:43;96801.13;;;8.97;100.00
1401;BME280;46518;48.842;8.926;2023-03-12T11:39:19;96800.53;;;8.73;100.00
1401;BME280;46518;48.842;8.926;2023-03-12T11:42:10;96812.06;;;8.72;100.00
1401;BME280;46518;48.842;8.926;2023-03-12T11:44:52;96804.84;;;8.62;100.00
1401;BME280;46518;48.842;8.926;2023-03-12T11:47:35;96813.13;;;8.54;100.00
1401;BME280;46518;48.842;8.926;2023-03-12T11:50:14;96812.06;;;8.72;100.00
1401;BME280;46518;48.842;8.926;2023-03-12T11:53:01;96814.53;;;8.79;100.00
1401;BME280;46518;48.842;8.926;2023-03-12T11:55:53;96822.00;;;8.87;100.00
1401;BME280;46518;48.842;8.926;2023-03-12T11:58:37;96821.94;;;8.82;100.00
1401;BME280;46518;48.842;8.926;2023-03-12T12:01:17;96803.69;;;8.92;100.00
1401;BME280;46518;48.842;8.926;2023-03-12T12:04:03;96797.47;;;8.98;100.00
1401;BME280;46518;48.842;8.926;2023-03-12T12:06:45;96798.34;;;9.26;100.00
1401;BME280;46518;48.842;8.926;2023-03-12T12:09:24;96790.78;;;9.29;100.00
1401;BME280;46518;48.842;8.926;2023-03-12T12:12:04;96789.94;;;9.24;100.00
1401;BME280;46518;48.842;8.926;2023-03-12T12:14:47;96783.47;;;9.10;100.00
1401;BME280;46518;48.842;8.926;2023-03-12T12:17:27;96792.84;;;9.27;100.00
1401;BME280;46518;48.842;8.926;2023-03-12T12:20:08;96786.31;;;9.30;100.00
1401;BME280;46518;48.842;8.926;2023-03-12T12:22:49;96788.44;;;9.33;100.00
1401;BME280;46518;48.842;8.926;2023-03-12T12:25:28;96782.19;;;9.34;100.00
1401;BME280;46518;48.842;8.926;2023-03-12T12:28:19;96776.97;;;9.39;100.00
1401;BME280;46518;48.842;8.926;2023-03-12T12:31:03;96774.09;;;9.41;99.21
1401;BME280;46518;48.842;8.926;2023-03-12T12:33:49;96763.41;;;9.47;99.06
1401;BME280;46518;48.842;8.926;2023-03-12T12:36:23;96761.47;;;9.38;97.70
1401;BME280;46518;48.842;8.926;2023-03-12T12:38:55;96758.66;;;9.44;97.29
1401;BME280;46518;48.842;8.926;2023-03-12T12:41:30;96764.63;;;9.40;98.63
1401;BME280;46518;48.842;8.926;2023-03-12T12:44:00;96768.72;;;9.31;97.55
1401;BME280;46518;48.842;8.926;2023-03-12T12:46:33;96772.91;;;9.26;97.90
1401;BME280;46518;48.842;8.926;2023-03-12T12:49:08;96771.97;;;9.16;98.80
1401;BME280;46518;48.842;8.926;2023-03-12T12:51:42;96778.50;;;9.13;100.00
1401;BME280;46518;48.842;8.926;2023-03-12T12:54:18;96771.22;;;8.98;100.00
1401;BME280;46518;48.842;8.926;2023-03-12T12:56:53;96785.47;;;9.02;100.00
1401;BME280;46518;48.842;8.926;2023-03-12T12:59:31;96789.47;;;8.88;100.00
1401;BME280;46518;48.842;8.926;2023-03-12T13:02:10;96778.41;;;8.86;100.00
1401;BME280;46518;48.842;8.926;2023-03-12T13:04:44;96783.50;;;8.93;100.00
1401;BME280;46518;48.842;8.926;2023-03-12T13:07:31;96785.41;;;8.97;100.00
1401;BME280;46518;48.842;8.926;2023-03-12T13:10:06;96782.66;;;9.09;100.00
1401;BME280;46518;48.842;8.926;2023-03-12T13:12:41;96787.16;;;9.36;100.00
1401;BME280;46518;48.842;8.926;2023-03-12T13:15:36;96774.69;;;9.48;100.00
1401;BME280;46518;48.842;8.926;2023-03-12T13:18:15;96772.63;;;9.50;100.00
1401;BME280;46518;48.842;8.926;2023-03-12T13:21:04;96777.19;;;9.60;99.85
1401;BME280;46518;48.842;8.926;2023-03-12T13:23:37;96776.81;;;9.73;98.63
1401;BME280;46518;48.842;8.926;2023-03-12T13:26:18;96771.34;;;9.80;93.12
1401;BME280;46518;48.842;8.926;2023-03-12T13:29:01;96776.66;;;9.85;92.76
1401;BME280;46518;48.842;8.926;2023-03-12T13:31:40;96768.00;;;9.84;87.97
1401;BME280;46518;48.842;8.926;2023-03-12T13:34:30;96759.19;;;10.01;88.85
1401;BME280;46518;48.842;8.926;2023-03-12T13:37:02;96760.13;;;10.17;88.56
1401;BME280;46518;48.842;8.926;2023-03-12T13:39:31;96765.97;;;10.24;91.67
1401;BME280;46518;48.842;8.926;2023-03-12T13:42:01;96763.41;;;10.02;87.59
1401;BME280;46518;48.842;8.926;2023-03-12T13:44:38;96766.75;;;9.92;90.42